createdAt,value
2023-03-13T00:01:49.386Z,95795.48
2023-03-13T00:04:18.558Z,95800.23
2023-03-13T00:06:47.062Z,95804.94
2023-03-13T00:09:17.314Z,95807.40
2023-03-13T00:11:47.484Z,95807.56
2023-03-13T00:14:15.886Z,95801.95
2023-03-13T00:16:44.321Z,95789.73
2023-03-13T00:19:12.554Z,95785.95
2023-03-13T00:21:44.302Z,95782.25
2023-03-13T00:24:12.871Z,95780.67
2023-03-13T00:26:41.084Z,95786.84
2023-03-13T00:29:09.331Z,95798.12
2023-03-13T00:31:37.567Z,95801.44
2023-03-13T00:34:06.024Z,95804.81
2023-03-13T00:36:35.809Z,95806.98
2023-03-13T00:39:05.780Z,95797.50
2023-03-13T00:41:37.078Z,95797.79
2023-03-13T00:44:07.198Z,95794.98
2023-03-13T00:46:36.637Z,95800.88
2023-03-13T00:49:05.891Z,95798.96
2023-03-13T00:51:35.865Z,95796.34
2023-03-13T00:54:05.143Z,95790.25
2023-03-13T00:56:34.415Z,95783.05
2023-03-13T00:59:03.238Z,95780.84
2023-03-13T01:01:34.615Z,95782.58
2023-03-13T01:04:08.577Z,95784.83
2023-03-13T01:06:41.090Z,95779.86
2023-03-13T01:09:12.128Z,95774.31
2023-03-13T01:11:41.690Z,95775.86
2023-03-13T01:14:19.249Z,95778.88
2023-03-13T01:16:48.111Z,95776.27
2023-03-13T01:19:17.291Z,95780.00
2023-03-13T01:21:47.411Z,95780.08
2023-03-13T01:24:17.075Z,95779.91
2023-03-13T01:26:45.309Z,95784.95
2023-03-13T01:29:14.480Z,95791.23
2023-03-13T01:31:43.013Z,95792.16
2023-03-13T01:34:11.647Z,95790.77
2023-03-13T01:36:40.118Z,95787.60
2023-03-13T01:39:08.551Z,95788.13
2023-03-13T01:41:37.739Z,95791.66
2023-03-13T01:44:06.323Z,95793.27
2023-03-13T01:46:37.208Z,95789.87
2023-03-13T01:49:33.673Z,95794.02
2023-03-13T01:52:13.248Z,95803.95
2023-03-13T01:55:00.258Z,95804.23
2023-03-13T01:57:41.245Z,95800.36
2023-03-13T02:00:16.537Z,95799.17
2023-03-13T02:02:48.703Z,95795.27
2023-03-13T02:05:20.434Z,95796.11
2023-03-13T02:07:55.259Z,95800.72
2023-03-13T02:10:25.528Z,95804.30
2023-03-13T02:12:54.264Z,95803.73
2023-03-13T02:15:25.796Z,95804.83
2023-03-13T02:17:55.220Z,95804.20
2023-03-13T02:20:24.039Z,95804.09
2023-03-13T02:23:02.224Z,95799.06
2023-03-13T02:25:50.977Z,95798.89
2023-03-13T02:28:29.519Z,95802.46
2023-03-13T02:30:58.953Z,95801.86
2023-03-13T02:33:30.797Z,95802.84
2023-03-13T02:36:01.549Z,95805.66
2023-03-13T02:38:35.297Z,95805.84
2023-03-13T02:41:06.448Z,95802.98
2023-03-13T02:43:38.713Z,95799.08
2023-03-13T02:46:19.080Z,95794.20
2023-03-13T02:48:52.536Z,95798.11
2023-03-13T02:51:29.764Z,95799.48
2023-03-13T02:54:04.186Z,95802.63
2023-03-13T02:56:36.765Z,95804.32
2023-03-13T02:59:05.483Z,95803.05
2023-03-13T03:01:34.069Z,95802.27
2023-03-13T03:04:02.881Z,95802.66
2023-03-13T03:06:31.538Z,95809.86
2023-03-13T03:09:00.202Z,95806.73
2023-03-13T03:11:28.788Z,95811.71
2023-03-13T03:14:02.196Z,95816.39
2023-03-13T03:16:31.898Z,95822.15
2023-03-13T03:19:00.421Z,95822.55
2023-03-13T03:21:29.179Z,95827.38
2023-03-13T03:23:57.548Z,95827.95
2023-03-13T03:26:26.257Z,95827.33
2023-03-13T03:28:54.826Z,95823.79
2023-03-13T03:31:23.929Z,95827.21
2023-03-13T03:33:52.303Z,95828.52
2023-03-13T03:36:23.591Z,95834.66
2023-03-13T03:38:52.756Z,95836.43
2023-03-13T03:41:24.409Z,95838.20
2023-03-13T03:43:52.995Z,95835.98
2023-03-13T03:46:24.760Z,95839.69
2023-03-13T03:48:53.233Z,95843.30
2023-03-13T03:51:23.465Z,95849.15
2023-03-13T03:53:52.048Z,95847.31
2023-03-13T03:56:20.812Z,95843.13
2023-03-13T03:58:53.011Z,95835.71
2023-03-13T04:01:44.582Z,95824.02
2023-03-13T04:04:13.545Z,95819.91
2023-03-13T04:06:44.472Z,95823.59
2023-03-13T04:09:13.257Z,95827.59
2023-03-13T04:11:41.537Z,95817.48
2023-03-13T04:14:10.947Z,95819.52
2023-03-13T04:16:39.668Z,95819.56
2023-03-13T04:19:08.111Z,95818.95
2023-03-13T04:21:36.904Z,95820.70
2023-03-13T04:24:09.797Z,95818.70
2023-03-13T04:26:40.209Z,95812.97
2023-03-13T04:29:09.411Z,95813.08
2023-03-13T04:32:02.159Z,95820.09
2023-03-13T04:34:37.002Z,95828.49
2023-03-13T04:37:28.524Z,95824.02
2023-03-13T04:40:32.327Z,95825.77
2023-03-13T04:43:13.836Z,95837.30
2023-03-13T04:46:05.222Z,95842.17
2023-03-13T04:49:09.074Z,95847.77
2023-03-13T04:51:55.969Z,95854.94
2023-03-13T04:54:54.150Z,95851.91
2023-03-13T04:57:48.543Z,95846.84
2023-03-13T05:00:26.458Z,95848.11
2023-03-13T05:03:10.620Z,95853.46
2023-03-13T05:06:14.510Z,95862.34
2023-03-13T05:09:01.724Z,95862.70
2023-03-13T05:11:40.554Z,95856.26
2023-03-13T05:14:25.314Z,95846.75
2023-03-13T05:17:29.184Z,95845.45
2023-03-13T05:20:23.528Z,95836.84
2023-03-13T05:23:00.397Z,95840.81
2023-03-13T05:25:47.210Z,95842.04
2023-03-13T05:28:27.679Z,95845.43
2023-03-13T05:31:28.407Z,95843.67
2023-03-13T05:33:56.696Z,95847.92
2023-03-13T05:36:45.248Z,95858.80
2023-03-13T05:39:38.283Z,95871.76
2023-03-13T05:42:32.823Z,95872.98
2023-03-13T05:45:29.797Z,95867.85
2023-03-13T05:48:25.599Z,95869.96
2023-03-13T05:51:06.467Z,95873.92
2023-03-13T05:53:47.140Z,95877.52
2023-03-13T05:56:41.502Z,95867.73
2023-03-13T05:59:25.765Z,95865.75
2023-03-13T06:02:12.684Z,95875.36
2023-03-13T06:04:43.789Z,95884.39
2023-03-13T06:07:13.101Z,95892.80
2023-03-13T06:09:41.723Z,95892.16
2023-03-13T06:12:11.848Z,95897.42
2023-03-13T06:14:40.465Z,95891.23
2023-03-13T06:17:17.907Z,95890.25
2023-03-13T06:19:49.363Z,95896.06
2023-03-13T06:22:18.051Z,95894.25
2023-03-13T06:24:49.299Z,95894.13
2023-03-13T06:27:17.876Z,95895.56
2023-03-13T06:29:46.365Z,95895.78
2023-03-13T06:32:14.846Z,95890.92
2023-03-13T06:34:43.127Z,95880.60
2023-03-13T06:37:11.662Z,95884.84
2023-03-13T06:39:39.907Z,95882.17
2023-03-13T06:42:08.626Z,95883.61
2023-03-13T06:44:37.368Z,95885.36
2023-03-13T06:47:06.218Z,95882.59
2023-03-13T06:49:34.660Z,95887.86
2023-03-13T06:52:03.636Z,95874.65
2023-03-13T06:54:32.018Z,95870.20
2023-03-13T06:57:00.120Z,95873.52
2023-03-13T06:59:28.675Z,95880.27
2023-03-13T07:01:56.956Z,95877.73
2023-03-13T07:04:25.635Z,95877.22
2023-03-13T07:06:54.235Z,95878.00
2023-03-13T07:09:22.507Z,95884.52
2023-03-13T07:11:50.883Z,95887.11
2023-03-13T07:14:19.093Z,95882.98
2023-03-13T07:16:47.453Z,95878.73
2023-03-13T07:19:16.780Z,95877.30
2023-03-13T07:21:45.055Z,95872.82
2023-03-13T07:24:13.670Z,95874.46
2023-03-13T07:26:48.647Z,95877.48
2023-03-13T07:29:19.694Z,95883.44
2023-03-13T07:31:48.230Z,95882.48
2023-03-13T07:34:17.363Z,95880.34
2023-03-13T07:36:45.560Z,95889.04
2023-03-13T07:39:15.777Z,95892.11
2023-03-13T07:41:44.233Z,95896.27
2023-03-13T07:44:17.448Z,95893.33
2023-03-13T07:46:48.598Z,95889.95
2023-03-13T07:49:17.313Z,95888.57
2023-03-13T07:51:47.927Z,95881.54
2023-03-13T07:54:16.205Z,95866.14
2023-03-13T07:56:44.451Z,95861.46
2023-03-13T07:59:12.656Z,95865.63
2023-03-13T08:01:40.794Z,95868.70
2023-03-13T08:04:14.537Z,95869.73
2023-03-13T08:06:42.922Z,95872.79
2023-03-13T08:09:11.372Z,95873.63
2023-03-13T08:11:44.754Z,95875.92
2023-03-13T08:14:13.128Z,95871.08
2023-03-13T08:16:41.190Z,95874.17
2023-03-13T08:19:10.567Z,95871.73
2023-03-13T08:21:38.844Z,95872.98
2023-03-13T08:24:09.196Z,95879.25
2023-03-13T08:26:40.618Z,95875.46
2023-03-13T08:29:14.342Z,95873.77
2023-03-13T08:31:55.911Z,95878.92
2023-03-13T08:34:24.190Z,95871.60
2023-03-13T08:36:53.058Z,95870.61
2023-03-13T08:39:21.870Z,95874.19
2023-03-13T08:41:50.386Z,95868.91
2023-03-13T08:44:22.700Z,95869.48
2023-03-13T08:46:50.811Z,95863.90
2023-03-13T08:49:20.120Z,95861.25
2023-03-13T08:51:48.381Z,95868.42
2023-03-13T08:54:16.980Z,95868.54
2023-03-13T08:56:46.882Z,95868.90
2023-03-13T08:59:18.211Z,95868.02
2023-03-13T09:01:46.605Z,95868.54
2023-03-13T09:04:14.806Z,95865.95
2023-03-13T09:06:43.271Z,95863.40
2023-03-13T09:09:13.292Z,95856.09
2023-03-13T09:11:41.669Z,95853.13
2023-03-13T09:14:10.941Z,95852.30
2023-03-13T09:16:39.174Z,95853.36
2023-03-13T09:19:08.164Z,95853.16
2023-03-13T09:21:36.524Z,95850.29
2023-03-13T09:24:05.679Z,95852.02
2023-03-13T09:26:34.622Z,95850.36
2023-03-13T09:29:02.994Z,95846.09
2023-03-13T09:31:32.913Z,95846.78
2023-03-13T09:34:02.156Z,95846.15
2023-03-13T09:36:30.906Z,95843.34
2023-03-13T09:39:00.066Z,95841.66
2023-03-13T09:41:53.678Z,95837.44
2023-03-13T09:44:36.287Z,95835.19
2023-03-13T09:47:08.763Z,95828.55
2023-03-13T09:49:45.568Z,95822.62
2023-03-13T09:52:25.041Z,95819.73
2023-03-13T09:54:53.132Z,95815.73
2023-03-13T09:57:56.245Z,95810.93
2023-03-13T10:00:27.958Z,95807.08
2023-03-13T10:03:03.762Z,95811.42
2023-03-13T10:05:33.760Z,95805.55
2023-03-13T10:08:18.695Z,95801.45
2023-03-13T10:11:04.766Z,95797.39
2023-03-13T10:13:50.150Z,95795.60
2023-03-13T10:16:24.622Z,95791.63
2023-03-13T10:18:59.085Z,95787.99
2023-03-13T10:21:34.427Z,95786.14
2023-03-13T10:24:02.476Z,95783.30
2023-03-13T10:26:35.120Z,95778.16
2023-03-13T10:29:23.745Z,95772.38
2023-03-13T10:31:57.437Z,95773.52
2023-03-13T10:34:28.188Z,95769.05
2023-03-13T10:37:02.031Z,95767.28
2023-03-13T10:39:30.564Z,95767.52
2023-03-13T10:42:12.306Z,95764.81
2023-03-13T10:44:40.521Z,95760.77
2023-03-13T10:47:13.926Z,95755.10
2023-03-13T10:49:52.200Z,95752.69
2023-03-13T10:52:33.525Z,95752.39
2023-03-13T10:55:05.752Z,95749.85
2023-03-13T10:57:38.188Z,95751.09
2023-03-13T11:00:37.157Z,95741.77
2023-03-13T11:03:14.648Z,95739.68
2023-03-13T11:05:43.857Z,95736.98
2023-03-13T11:08:34.205Z,95740.73
2023-03-13T11:11:04.872Z,95735.27
2023-03-13T11:13:41.072Z,95732.49
2023-03-13T11:16:11.872Z,95734.21
2023-03-13T11:18:55.065Z,95725.90
2023-03-13T11:21:42.348Z,95721.44
2023-03-13T11:24:29.071Z,95720.80
2023-03-13T11:27:22.652Z,95722.36
2023-03-13T11:30:28.522Z,95717.16
2023-03-13T11:32:59.518Z,95710.02
2023-03-13T11:35:47.413Z,95709.00
2023-03-13T11:38:38.518Z,95702.55
2023-03-13T11:41:36.225Z,95696.09
2023-03-13T11:44:31.768Z,95697.85
2023-03-13T11:47:15.438Z,95696.92
2023-03-13T11:50:02.500Z,95695.23
2023-03-13T11:53:10.308Z,95694.41
2023-03-13T11:56:15.777Z,95694.65
2023-03-13T11:59:07.947Z,95689.08
2023-03-13T12:01:44.920Z,95685.48
2023-03-13T12:04:30.585Z,95679.45
2023-03-13T12:07:06.035Z,95677.26
2023-03-13T12:09:54.178Z,95674.52
2023-03-13T12:12:48.986Z,95670.86
2023-03-13T12:15:36.096Z,95671.61
2023-03-13T12:18:14.204Z,95666.96
2023-03-13T12:21:02.329Z,95667.70
2023-03-13T12:23:41.125Z,95665.11
2023-03-13T12:26:15.604Z,95664.02
2023-03-13T12:29:21.301Z,95662.19
2023-03-13T12:32:15.974Z,95655.32
2023-03-13T12:34:52.533Z,95648.92
2023-03-13T12:37:23.784Z,95649.77
2023-03-13T12:40:09.822Z,95644.14
2023-03-13T12:43:00.882Z,95646.89
2023-03-13T12:45:30.140Z,95645.77
2023-03-13T12:48:01.400Z,95644.68
2023-03-13T12:50:50.414Z,95640.39
2023-03-13T12:53:29.872Z,95641.07
2023-03-13T12:56:26.380Z,95635.98
2023-03-13T12:59:47.122Z,95632.29
2023-03-13T13:02:20.797Z,95621.80
2023-03-13T13:04:50.126Z,95615.57
2023-03-13T13:07:30.871Z,95610.56
2023-03-13T13:10:11.565Z,95604.92
2023-03-13T13:12:45.538Z,95602.27
2023-03-13T13:15:27.048Z,95601.83
2023-03-13T13:18:14.793Z,95600.73
2023-03-13T13:20:45.812Z,95600.89
2023-03-13T13:23:22.899Z,95603.70
2023-03-13T13:25:52.512Z,95605.11
2023-03-13T13:28:27.118Z,95600.63
2023-03-13T13:30:56.677Z,95602.79
2023-03-13T13:33:31.147Z,95603.45
2023-03-13T13:36:21.774Z,95602.42
2023-03-13T13:38:50.699Z,95598.16
2023-03-13T13:41:19.037Z,95596.25
2023-03-13T13:43:50.795Z,95597.23
2023-03-13T13:46:19.547Z,95590.77
2023-03-13T13:48:47.982Z,95591.36
2023-03-13T13:51:18.842Z,95589.19
2023-03-13T13:53:48.218Z,95587.79
2023-03-13T13:56:31.389Z,95582.35
2023-03-13T13:59:11.809Z,95578.45
2023-03-13T14:01:42.489Z,95580.58
2023-03-13T14:04:30.423Z,95576.94
2023-03-13T14:07:03.259Z,95575.45
2023-03-13T14:09:40.645Z,95571.14
2023-03-13T14:12:27.883Z,95564.86
2023-03-13T14:15:22.306Z,95556.04
2023-03-13T14:18:00.321Z,95546.29
2023-03-13T14:20:30.405Z,95536.98
2023-03-13T14:23:06.267Z,95542.38
2023-03-13T14:26:09.561Z,95538.34
2023-03-13T14:28:41.724Z,95535.98
2023-03-13T14:31:12.159Z,95529.54
2023-03-13T14:33:40.535Z,95529.00
2023-03-13T14:36:10.186Z,95533.23
2023-03-13T14:38:38.469Z,95533.35
2023-03-13T14:41:06.785Z,95542.77
2023-03-13T14:43:42.803Z,95541.45
2023-03-13T14:46:31.259Z,95538.32
2023-03-13T14:49:16.548Z,95537.63
2023-03-13T14:51:44.904Z,95535.64
2023-03-13T14:54:26.684Z,95531.27
2023-03-13T14:57:16.318Z,95527.86
2023-03-13T14:59:44.721Z,95525.47
2023-03-13T15:02:19.333Z,95529.37
2023-03-13T15:05:01.591Z,95533.81
2023-03-13T15:07:47.246Z,95527.70
2023-03-13T15:10:22.616Z,95524.23
2023-03-13T15:12:51.703Z,95520.98
2023-03-13T15:15:19.897Z,95515.84
2023-03-13T15:17:48.137Z,95509.66
2023-03-13T15:20:16.857Z,95506.12
2023-03-13T15:22:46.851Z,95506.77
2023-03-13T15:25:19.903Z,95510.10
2023-03-13T15:27:49.706Z,95512.92
2023-03-13T15:30:20.560Z,95509.44
2023-03-13T15:32:49.056Z,95512.30
2023-03-13T15:35:29.736Z,95509.89
2023-03-13T15:38:00.018Z,95508.70
2023-03-13T15:40:31.080Z,95515.20
2023-03-13T15:43:00.013Z,95510.05
2023-03-13T15:45:28.328Z,95513.15
2023-03-13T15:47:56.659Z,95510.41
2023-03-13T15:50:30.156Z,95512.95
2023-03-13T15:53:00.990Z,95513.70
2023-03-13T15:55:30.127Z,95515.06
2023-03-13T15:57:58.427Z,95512.77
2023-03-13T16:00:27.386Z,95512.54
2023-03-13T16:02:55.550Z,95516.16
2023-03-13T16:05:23.715Z,95518.55
2023-03-13T16:07:52.209Z,95517.39
2023-03-13T16:10:25.650Z,95512.20
2023-03-13T16:12:55.048Z,95516.92
2023-03-13T16:15:23.090Z,95522.07
2023-03-13T16:17:51.269Z,95520.67
2023-03-13T16:20:23.755Z,95515.64
2023-03-13T16:22:53.759Z,95522.79
2023-03-13T16:25:22.868Z,95525.37
2023-03-13T16:27:53.684Z,95526.14
2023-03-13T16:30:28.573Z,95524.27
2023-03-13T16:32:56.862Z,95525.73
2023-03-13T16:35:27.931Z,95529.85
2023-03-13T16:37:58.084Z,95527.34
2023-03-13T16:40:31.363Z,95533.13
2023-03-13T16:43:00.459Z,95528.39
2023-03-13T16:45:28.963Z,95529.06
2023-03-13T16:47:57.233Z,95528.54
2023-03-13T16:50:38.577Z,95523.03
2023-03-13T16:53:06.750Z,95519.35
2023-03-13T16:55:37.020Z,95520.42
2023-03-13T16:58:05.805Z,95525.88
2023-03-13T17:00:34.199Z,95526.80
2023-03-13T17:03:02.467Z,95529.25
2023-03-13T17:05:30.939Z,95522.23
2023-03-13T17:07:59.125Z,95518.27
2023-03-13T17:10:31.941Z,95522.86
2023-03-13T17:13:00.676Z,95521.80
2023-03-13T17:15:29.109Z,95522.73
2023-03-13T17:17:57.967Z,95526.25
2023-03-13T17:20:29.261Z,95523.48
2023-03-13T17:22:58.007Z,95522.70
2023-03-13T17:25:26.169Z,95521.04
2023-03-13T17:27:54.682Z,95521.53
2023-03-13T17:30:26.460Z,95512.73
2023-03-13T17:32:54.785Z,95513.94
2023-03-13T17:35:23.810Z,95515.88
2023-03-13T17:37:52.272Z,95513.61
2023-03-13T17:40:22.704Z,95508.23
2023-03-13T17:42:51.697Z,95503.52
2023-03-13T17:45:21.379Z,95506.19
2023-03-13T17:47:50.609Z,95506.31
2023-03-13T17:50:27.046Z,95503.23
2023-03-13T17:52:56.075Z,95502.59
2023-03-13T17:55:24.856Z,95500.73
2023-03-13T17:57:53.970Z,95505.06
2023-03-13T18:00:31.996Z,95499.59
2023-03-13T18:03:00.446Z,95492.04
2023-03-13T18:05:29.217Z,95491.91
2023-03-13T18:07:57.828Z,95494.54
2023-03-13T18:10:28.427Z,95498.77
2023-03-13T18:20:33.570Z,95507.87
2023-03-13T18:23:01.726Z,95508.35
2023-03-13T18:25:30.518Z,95512.25
2023-03-13T18:27:58.999Z,95509.49
2023-03-13T18:30:28.304Z,95510.06
2023-03-13T18:32:56.546Z,95512.38
2023-03-13T18:35:25.200Z,95507.30
2023-03-13T18:37:53.554Z,95512.70
2023-03-13T18:40:25.261Z,95509.38
2023-03-13T18:42:53.473Z,95508.71
2023-03-13T18:45:24.106Z,95508.51
2023-03-13T18:47:53.412Z,95506.15
2023-03-13T18:50:27.738Z,95502.49
2023-03-13T18:52:58.063Z,95499.69
2023-03-13T18:55:29.212Z,95493.68
2023-03-13T18:57:57.806Z,95486.49
2023-03-13T19:00:28.817Z,95484.93
2023-03-13T19:02:57.832Z,95486.29
2023-03-13T19:05:26.220Z,95488.17
2023-03-13T19:07:54.707Z,95485.54
2023-03-13T19:10:24.639Z,95489.59
2023-03-13T19:12:55.034Z,95488.16
2023-03-13T19:15:27.437Z,95485.44
2023-03-13T19:17:56.515Z,95489.54
2023-03-13T19:20:25.000Z,95495.64
2023-03-13T19:22:54.509Z,95496.46
2023-03-13T19:25:23.808Z,95500.66
2023-03-13T19:27:52.296Z,95503.86
2023-03-13T19:30:24.043Z,95506.73
2023-03-13T19:32:52.515Z,95506.04
2023-03-13T19:35:22.316Z,95507.13
2023-03-13T19:37:50.846Z,95505.02
2023-03-13T19:40:23.922Z,95498.81
2023-03-13T19:42:52.239Z,95495.94
2023-03-13T19:45:22.361Z,95488.85
2023-03-13T19:47:50.807Z,95482.45
2023-03-13T19:50:27.733Z,95481.11
2023-03-13T19:52:56.060Z,95478.92
2023-03-13T19:55:24.345Z,95486.32
2023-03-13T19:57:52.619Z,95492.33
2023-03-13T20:00:24.449Z,95501.77
2023-03-13T20:02:55.257Z,95500.30
2023-03-13T20:05:24.951Z,95497.24
2023-03-13T20:07:54.434Z,95497.65
2023-03-13T20:10:22.849Z,95497.60
2023-03-13T20:12:53.863Z,95495.11
2023-03-13T20:15:22.111Z,95491.54
2023-03-13T20:17:50.637Z,95489.83
2023-03-13T20:20:19.005Z,95488.59
2023-03-13T20:22:47.321Z,95486.55
2023-03-13T20:25:16.372Z,95488.02
2023-03-13T20:27:44.447Z,95487.09
2023-03-13T20:30:13.141Z,95476.46
2023-03-13T20:32:56.725Z,95472.62
2023-03-13T20:35:28.535Z,95469.77
2023-03-13T20:37:58.867Z,95464.33
2023-03-13T20:40:27.166Z,95461.16
2023-03-13T20:42:55.659Z,95462.56
2023-03-13T20:45:24.972Z,95465.62
2023-03-13T20:47:54.849Z,95465.71
2023-03-13T20:50:23.626Z,95460.10
2023-03-13T20:52:51.641Z,95454.09
2023-03-13T20:55:19.772Z,95450.86
2023-03-13T20:57:48.203Z,95448.80
2023-03-13T21:00:17.276Z,95442.52
2023-03-13T21:02:47.069Z,95438.00
2023-03-13T21:05:16.256Z,95430.23
2023-03-13T21:07:44.342Z,95424.95
2023-03-13T21:10:12.817Z,95417.20
2023-03-13T21:12:41.450Z,95412.17
2023-03-13T21:15:10.670Z,95411.05
2023-03-13T21:17:39.339Z,95402.42
2023-03-13T21:20:12.927Z,95397.17
2023-03-13T21:22:43.346Z,95391.17
2023-03-13T21:25:12.942Z,95381.35
2023-03-13T21:27:43.895Z,95371.58
2023-03-13T21:30:15.232Z,95370.67
2023-03-13T21:32:44.110Z,95371.41
2023-03-13T21:35:12.879Z,95374.23
2023-03-13T21:37:41.395Z,95376.10
2023-03-13T21:40:10.601Z,95372.91
2023-03-13T21:42:38.766Z,95368.56
2023-03-13T21:45:08.142Z,95370.11
2023-03-13T21:47:37.215Z,95362.01
2023-03-13T21:50:08.256Z,95353.87
2023-03-13T21:52:40.850Z,95355.34
2023-03-13T21:55:13.156Z,95357.30
2023-03-13T21:57:41.563Z,95353.67
2023-03-13T22:00:14.136Z,95351.92
2023-03-13T22:02:43.046Z,95348.92
2023-03-13T22:05:11.613Z,95345.86
2023-03-13T22:07:39.789Z,95344.95
2023-03-13T22:10:12.893Z,95341.01
2023-03-13T22:12:40.927Z,95343.42
2023-03-13T22:15:10.058Z,95345.39
2023-03-13T22:17:38.314Z,95344.48
2023-03-13T22:20:09.265Z,95339.09
2023-03-13T22:22:41.451Z,95336.74
2023-03-13T22:25:10.119Z,95332.00
2023-03-13T22:27:39.558Z,95326.27
2023-03-13T22:30:09.890Z,95324.41
2023-03-13T22:32:38.422Z,95330.71
2023-03-13T22:35:07.704Z,95331.52
2023-03-13T22:37:36.217Z,95331.98
2023-03-13T22:40:05.804Z,95329.20
2023-03-13T22:42:33.995Z,95326.45
2023-03-13T22:45:02.075Z,95327.79
2023-03-13T22:47:30.075Z,95322.36
2023-03-13T22:49:59.863Z,95318.89
2023-03-13T22:52:31.209Z,95316.52
2023-03-13T22:54:59.605Z,95316.13
2023-03-13T22:57:29.399Z,95314.78
2023-03-13T22:59:59.456Z,95312.09
2023-03-13T23:02:28.653Z,95305.08
2023-03-13T23:04:58.851Z,95299.27
2023-03-13T23:07:28.919Z,95296.26
2023-03-13T23:09:58.612Z,95286.45
2023-03-13T23:12:27.166Z,95290.41
2023-03-13T23:14:56.066Z,95291.66
2023-03-13T23:17:24.349Z,95287.71
2023-03-13T23:19:52.765Z,95285.29
2023-03-13T23:22:22.164Z,95291.73
2023-03-13T23:24:54.275Z,95293.80
2023-03-13T23:27:22.609Z,95288.35
2023-03-13T23:29:51.861Z,95281.46
2023-03-13T23:32:20.394Z,95286.38
2023-03-13T23:34:48.631Z,95281.57
2023-03-13T23:37:16.809Z,95279.15
2023-03-13T23:39:44.906Z,95281.39
2023-03-13T23:42:13.160Z,95277.45
2023-03-13T23:44:41.838Z,95275.96
2023-03-13T23:47:10.237Z,95272.88
2023-03-13T23:49:38.399Z,95267.34
2023-03-13T23:52:06.696Z,95264.09
2023-03-13T23:54:35.200Z,95264.27
2023-03-13T23:57:03.541Z,95263.36
2023-03-13T23:59:32.453Z,95261.71
